Time;durP1;ratioP1;P1;durP2;ratioP2;P2;SDS_P1;SDS_P2;PMS_P1;PMS_P2;Temp;Humidity;BMP_temperature;BMP_pressure;BME280_temperature;BME280_humidity;BME280_pressure;Samples;Min_cycle;Max_cycle;Signal;HPM_P1;HPM_P2
2022/10/07 00:02:19;;;;;;;;;;;19.40;66.90;;;;;;4428987;32;20047;-75
2022/10/07 00:04:45;;;;;;;;;;;19.30;66.80;;;;;;4427329;32;20011;-75
2022/10/07 00:07:12;;;;;;;;;;;19.30;66.90;;;;;;4428909;32;20492;-74
2022/10/07 00:09:37;;;;;;;;;;;19.30;66.80;;;;;;4430066;32;20165;-75
2022/10/07 00:12:04;;;;;;;;;;;19.30;66.90;;;;;;4430014;32;20438;-75
2022/10/07 00:14:29;;;;;;;;;;;19.30;66.90;;;;;;4429864;32;20001;-75
2022/10/07 00:16:55;;;;;;;;;;;19.30;66.90;;;;;;4429297;32;20034;-75
2022/10/07 00:19:21;;;;;;;;;;;19.30;66.90;;;;;;4428985;32;19966;-75
2022/10/07 00:21:47;;;;;;;;;;;19.30;66.90;;;;;;4428730;32;20115;-75
2022/10/07 00:24:14;;;;;;;;;;;19.30;66.90;;;;;;4429448;32;20125;-74
2022/10/07 00:26:40;;;;;;;;;;;19.30;66.90;;;;;;4429887;32;20508;-74
2022/10/07 00:29:06;;;;;;;;;;;19.30;66.90;;;;;;4430141;32;20065;-75
2022/10/07 00:31:33;;;;;;;;;;;19.30;66.90;;;;;;4428930;32;19982;-75
2022/10/07 00:33:59;;;;;;;;;;;19.30;66.90;;;;;;4428558;32;20011;-75
2022/10/07 00:36:26;;;;;;;;;;;19.30;66.90;;;;;;4418216;32;20306;-75
2022/10/07 00:38:54;;;;;;;;;;;19.30;66.90;;;;;;4427572;32;20381;-75
2022/10/07 00:41:22;;;;;;;;;;;19.30;66.90;;;;;;4428692;32;20117;-74
2022/10/07 00:43:48;;;;;;;;;;;19.30;66.80;;;;;;4428716;32;20012;-75
2022/10/07 00:46:20;;;;;;;;;;;19.30;66.90;;;;;;4414735;32;20353;-74
2022/10/07 00:48:46;;;;;;;;;;;19.20;66.70;;;;;;4428264;32;20057;-74
2022/10/07 00:51:15;;;;;;;;;;;19.20;66.80;;;;;;4428752;32;19985;-74
2022/10/07 00:53:41;;;;;;;;;;;19.20;66.70;;;;;;4427286;32;20060;-75
2022/10/07 00:56:07;;;;;;;;;;;19.20;66.70;;;;;;4428566;32;19979;-75
2022/10/07 00:58:34;;;;;;;;;;;19.20;66.70;;;;;;4428561;32;19999;-75
2022/10/07 01:01:00;;;;;;;;;;;19.20;66.70;;;;;;4428585;32;20009;-75
2022/10/07 01:03:26;;;;;;;;;;;19.20;66.70;;;;;;4429585;32;20401;-75
2022/10/07 01:05:53;;;;;;;;;;;19.20;66.70;;;;;;4428427;32;19994;-75
2022/10/07 01:08:20;;;;;;;;;;;19.20;66.70;;;;;;4428173;32;20013;-75
2022/10/07 01:10:46;;;;;;;;;;;19.20;66.70;;;;;;4428306;32;19974;-75
2022/10/07 01:13:31;;;;;;;;;;;19.20;66.70;;;;;;4428472;32;19987;-75
2022/10/07 01:16:06;;;;;;;;;;;19.20;66.70;;;;;;4428390;32;20051;-75
2022/10/07 01:18:46;;;;;;;;;;;19.20;66.70;;;;;;4428656;32;20105;-75
2022/10/07 01:21:28;;;;;;;;;;;19.20;66.70;;;;;;4428428;32;20397;-75
2022/10/07 01:23:57;;;;;;;;;;;19.10;66.60;;;;;;4428737;32;20443;-75
2022/10/07 01:26:23;;;;;;;;;;;19.10;66.60;;;;;;4428457;32;20174;-75
2022/10/07 01:29:00;;;;;;;;;;;19.10;66.60;;;;;;4428482;32;20436;-75
2022/10/07 01:31:31;;;;;;;;;;;19.10;66.60;;;;;;4428393;32;20475;-73
2022/10/07 01:33:57;;;;;;;;;;;19.10;66.60;;;;;;4428342;32;20136;-75
2022/10/07 01:36:23;;;;;;;;;;;19.10;66.60;;;;;;4426315;32;19995;-76
2022/10/07 01:38:52;;;;;;;;;;;19.10;66.60;;;;;;4428228;32;20056;-74
2022/10/07 01:41:20;;;;;;;;;;;19.10;66.60;;;;;;4429167;32;19978;-75
2022/10/07 01:43:47;;;;;;;;;;;19.10;66.60;;;;;;4429435;32;19967;-73
2022/10/07 01:46:14;;;;;;;;;;;19.10;66.60;;;;;;4429481;32;20065;-75
2022/10/07 01:48:40;;;;;;;;;;;19.10;66.60;;;;;;4429514;32;20077;-74
2022/10/07 01:51:07;;;;;;;;;;;19.00;66.50;;;;;;4429586;32;20165;-75
2022/10/07 01:53:38;;;;;;;;;;;19.10;66.60;;;;;;4428849;32;20149;-75
2022/10/07 01:56:23;;;;;;;;;;;19.10;66.60;;;;;;4429378;32;20040;-75
2022/10/07 01:58:52;;;;;;;;;;;19.10;66.50;;;;;;4434547;32;20046;-75
2022/10/07 02:01:26;;;;;;;;;;;19.10;66.50;;;;;;4432032;32;20108;-74
2022/10/07 02:04:04;;;;;;;;;;;19.00;66.50;;;;;;4428723;32;20342;-75
2022/10/07 02:06:56;;;;;;;;;;;19.10;66.50;;;;;;4431803;32;20019;-75
2022/10/07 02:09:21;;;;;;;;;;;19.00;66.50;;;;;;4410883;32;20282;-75
2022/10/07 02:11:49;;;;;;;;;;;19.00;66.50;;;;;;4416385;32;19986;-74
2022/10/07 02:14:28;;;;;;;;;;;19.00;66.40;;;;;;4416434;32;20522;-74
2022/10/07 02:17:00;;;;;;;;;;;19.00;66.50;;;;;;4416605;32;20023;-74
2022/10/07 02:19:38;;;;;;;;;;;19.00;66.50;;;;;;4416211;32;19990;-75
2022/10/07 02:22:04;;;;;;;;;;;19.00;66.40;;;;;;4416301;32;20026;-75
2022/10/07 02:24:33;;;;;;;;;;;19.00;66.40;;;;;;4416337;32;20057;-74
2022/10/07 02:27:00;;;;;;;;;;;19.00;66.40;;;;;;4416397;32;19968;-75
2022/10/07 02:29:29;;;;;;;;;;;19.00;66.40;;;;;;4416199;32;20041;-75
2022/10/07 02:31:57;;;;;;;;;;;19.00;66.40;;;;;;4415894;32;19979;-75
2022/10/07 02:34:23;;;;;;;;;;;19.00;66.40;;;;;;4416294;32;19979;-74
2022/10/07 02:36:52;;;;;;;;;;;19.00;66.40;;;;;;4402578;32;19987;-74
2022/10/07 02:39:18;;;;;;;;;;;19.00;66.40;;;;;;4402237;32;19987;-74
2022/10/07 02:41:52;;;;;;;;;;;19.00;66.40;;;;;;4415541;32;20030;-75
2022/10/07 02:44:27;;;;;;;;;;;19.00;66.40;;;;;;4402185;32;19990;-75
2022/10/07 02:47:06;;;;;;;;;;;19.00;66.40;;;;;;4416385;32;19989;-74
2022/10/07 02:49:36;;;;;;;;;;;19.00;66.40;;;;;;4411502;32;19986;-74
2022/10/07 02:52:07;;;;;;;;;;;19.00;66.30;;;;;;4402488;32;19982;-75
2022/10/07 02:54:35;;;;;;;;;;;19.00;66.40;;;;;;4416630;32;20081;-73
2022/10/07 02:57:02;;;;;;;;;;;19.00;67.20;;;;;;4416245;32;19990;-74
2022/10/07 02:59:29;;;;;;;;;;;18.90;66.20;;;;;;4416400;32;20315;-74
2022/10/07 03:01:57;;;;;;;;;;;18.90;66.20;;;;;;4402164;32;20117;-74
2022/10/07 03:04:23;;;;;;;;;;;18.90;66.30;;;;;;4416466;32;19979;-73
2022/10/07 03:06:50;;;;;;;;;;;18.90;66.20;;;;;;4417080;32;20018;-74
2022/10/07 03:09:16;;;;;;;;;;;18.90;66.20;;;;;;4431270;32;20540;-75
2022/10/07 03:11:41;;;;;;;;;;;18.90;66.20;;;;;;4431519;32;20462;-74
2022/10/07 03:14:08;;;;;;;;;;;18.90;66.20;;;;;;4431237;32;19963;-74
2022/10/07 03:16:35;;;;;;;;;;;18.90;66.20;;;;;;4431412;32;20011;-74
2022/10/07 03:19:00;;;;;;;;;;;18.90;66.20;;;;;;4431696;32;20057;-75
2022/10/07 03:21:26;;;;;;;;;;;18.90;66.30;;;;;;4420629;32;19960;-75
2022/10/07 03:23:52;;;;;;;;;;;18.90;66.10;;;;;;4430322;32;20101;-75
2022/10/07 03:26:18;;;;;;;;;;;18.90;66.20;;;;;;4431198;32;20049;-75
2022/10/07 03:28:44;;;;;;;;;;;18.90;66.20;;;;;;4431470;32;20016;-74
2022/10/07 03:31:11;;;;;;;;;;;18.90;66.20;;;;;;4431049;32;20336;-75
2022/10/07 03:33:37;;;;;;;;;;;18.90;66.20;;;;;;4431317;32;20402;-74
2022/10/07 03:36:04;;;;;;;;;;;18.90;66.20;;;;;;4430546;32;19987;-75
2022/10/07 03:38:31;;;;;;;;;;;18.80;66.10;;;;;;4430553;32;20092;-74
2022/10/07 03:40:57;;;;;;;;;;;18.90;66.20;;;;;;4430977;32;19967;-74
2022/10/07 03:43:23;;;;;;;;;;;18.80;66.00;;;;;;4430414;32;20049;-74
2022/10/07 03:45:49;;;;;;;;;;;18.80;66.10;;;;;;4430540;32;19989;-74
2022/10/07 03:48:15;;;;;;;;;;;18.80;66.00;;;;;;4430409;32;21428;-74
2022/10/07 03:50:46;;;;;;;;;;;18.80;66.10;;;;;;4416819;32;20121;-74
2022/10/07 03:53:13;;;;;;;;;;;18.80;66.00;;;;;;4424104;32;19986;-74
2022/10/07 03:55:39;;;;;;;;;;;18.80;66.10;;;;;;4430242;32;19990;-74
2022/10/07 03:58:04;;;;;;;;;;;18.80;66.10;;;;;;4416605;32;20052;-74
2022/10/07 04:00:30;;;;;;;;;;;18.80;66.00;;;;;;4430081;32;19971;-75
2022/10/07 04:02:56;;;;;;;;;;;18.80;66.00;;;;;;4416471;32;19971;-74
2022/10/07 04:05:22;;;;;;;;;;;18.80;66.00;;;;;;4429944;32;20389;-75
2022/10/07 04:07:49;;;;;;;;;;;18.80;66.00;;;;;;4430216;32;19971;-74
2022/10/07 04:10:15;;;;;;;;;;;18.80;66.00;;;;;;4429801;32;20368;-75
2022/10/07 04:12:42;;;;;;;;;;;18.80;66.00;;;;;;4430162;32;19987;-74
2022/10/07 04:15:12;;;;;;;;;;;18.80;66.00;;;;;;4430123;32;19975;-75
2022/10/07 04:17:39;;;;;;;;;;;18.80;66.00;;;;;;4416276;32;19971;-74
2022/10/07 04:20:05;;;;;;;;;;;18.80;66.00;;;;;;4430245;32;20031;-75
2022/10/07 04:22:30;;;;;;;;;;;18.80;66.00;;;;;;4429644;32;20339;-74
2022/10/07 04:27:41;;;;;;;;;;;18.80;66.00;;;;;;4416175;32;20014;-74
2022/10/07 04:30:07;;;;;;;;;;;18.80;66.00;;;;;;4429817;32;20624;-74
2022/10/07 04:32:33;;;;;;;;;;;18.80;66.00;;;;;;4430069;32;20129;-74
2022/10/07 04:35:00;;;;;;;;;;;18.80;65.90;;;;;;4429869;32;19998;-75
2022/10/07 04:37:29;;;;;;;;;;;18.70;65.90;;;;;;4430250;32;19970;-74
2022/10/07 04:39:55;;;;;;;;;;;18.70;65.90;;;;;;4415692;32;19985;-74
2022/10/07 04:45:06;;;;;;;;;;;18.70;65.90;;;;;;4429833;32;19990;-74
2022/10/07 04:47:34;;;;;;;;;;;18.70;65.90;;;;;;4430088;32;19975;-74
2022/10/07 04:50:04;;;;;;;;;;;18.70;65.90;;;;;;4429756;32;20312;-74
2022/10/07 04:52:41;;;;;;;;;;;18.70;65.90;;;;;;4429896;32;20347;-74
2022/10/07 04:55:13;;;;;;;;;;;18.70;65.90;;;;;;4429574;32;19985;-74
2022/10/07 04:57:39;;;;;;;;;;;18.70;65.90;;;;;;4429774;32;20393;-74
2022/10/07 05:00:05;;;;;;;;;;;18.70;65.90;;;;;;4429630;32;20473;-74
2022/10/07 05:02:31;;;;;;;;;;;18.70;65.90;;;;;;4429490;32;19987;-74
2022/10/07 05:04:58;;;;;;;;;;;18.70;65.90;;;;;;4415596;32;20506;-74
2022/10/07 05:07:24;;;;;;;;;;;18.70;65.90;;;;;;4429506;32;20050;-74
2022/10/07 05:09:51;;;;;;;;;;;18.70;65.80;;;;;;4429250;32;19985;-74
2022/10/07 05:12:17;;;;;;;;;;;18.70;65.80;;;;;;4429544;32;19983;-74
2022/10/07 05:14:43;;;;;;;;;;;18.70;65.80;;;;;;4429771;32;19979;-74
2022/10/07 05:17:09;;;;;;;;;;;18.70;65.90;;;;;;4438533;32;20026;-74
2022/10/07 05:19:35;;;;;;;;;;;18.70;65.80;;;;;;4430062;32;20089;-74
2022/10/07 05:22:04;;;;;;;;;;;18.70;65.80;;;;;;4429816;32;20475;-74
2022/10/07 05:24:30;;;;;;;;;;;18.70;65.80;;;;;;4415374;32;19982;-74
2022/10/07 05:27:02;;;;;;;;;;;18.60;65.80;;;;;;4429867;32;19983;-74
2022/10/07 05:29:28;;;;;;;;;;;18.60;65.80;;;;;;4429465;32;19967;-74
2022/10/07 05:31:54;;;;;;;;;;;18.60;65.80;;;;;;4403310;32;20093;-74
2022/10/07 05:34:19;;;;;;;;;;;18.60;65.80;;;;;;4403418;32;20011;-75
2022/10/07 05:36:46;;;;;;;;;;;18.60;65.80;;;;;;4432618;32;20022;-74
2022/10/07 05:39:11;;;;;;;;;;;18.60;65.80;;;;;;4403358;32;19986;-74
2022/10/07 05:41:38;;;;;;;;;;;18.60;65.70;;;;;;4430915;32;20312;-74
2022/10/07 05:44:03;;;;;;;;;;;18.60;65.80;;;;;;4432529;32;19983;-74
2022/10/07 05:46:29;;;;;;;;;;;18.60;65.80;;;;;;4432264;32;19963;-74
2022/10/07 05:48:55;;;;;;;;;;;18.60;65.80;;;;;;4432500;32;20385;-74
2022/10/07 05:51:22;;;;;;;;;;;18.60;65.70;;;;;;4432194;32;19982;-75
2022/10/07 05:53:48;;;;;;;;;;;18.60;65.80;;;;;;4432276;32;20355;-74
2022/10/07 05:56:15;;;;;;;;;;;18.60;65.80;;;;;;4432286;32;20468;-74
2022/10/07 05:58:41;;;;;;;;;;;18.60;65.80;;;;;;4431998;32;20495;-73
2022/10/07 06:01:08;;;;;;;;;;;18.60;66.70;;;;;;4418330;32;19983;-74
2022/10/07 06:03:34;;;;;;;;;;;18.60;65.80;;;;;;4431620;32;20058;-74
2022/10/07 06:06:00;;;;;;;;;;;18.60;65.80;;;;;;4432235;32;19977;-74
2022/10/07 06:08:26;;;;;;;;;;;18.60;65.80;;;;;;4431764;32;20018;-74
2022/10/07 06:13:37;;;;;;;;;;;18.60;65.80;;;;;;4432223;32;19982;-74
2022/10/07 06:16:07;;;;;;;;;;;18.50;65.80;;;;;;4417901;32;20345;-74
2022/10/07 06:18:36;;;;;;;;;;;18.50;65.80;;;;;;4431883;32;20440;-74
2022/10/07 06:21:01;;;;;;;;;;;18.50;65.80;;;;;;4431771;32;20101;-74
2022/10/07 06:23:27;;;;;;;;;;;18.50;65.70;;;;;;4432028;32;20299;-74
2022/10/07 06:26:01;;;;;;;;;;;18.50;65.80;;;;;;4431784;32;19978;-74
2022/10/07 06:28:31;;;;;;;;;;;18.50;65.80;;;;;;4432161;32;19971;-74
2022/10/07 06:30:56;;;;;;;;;;;18.50;65.80;;;;;;4431678;32;19990;-74
2022/10/07 06:33:22;;;;;;;;;;;18.50;65.80;;;;;;4432003;32;20385;-74
2022/10/07 06:35:48;;;;;;;;;;;18.50;65.80;;;;;;4431831;32;19977;-70
2022/10/07 06:38:14;;;;;;;;;;;18.50;65.80;;;;;;4431430;32;20092;-72
2022/10/07 06:40:39;;;;;;;;;;;18.50;65.80;;;;;;4431553;32;19983;-72
2022/10/07 06:43:05;;;;;;;;;;;18.50;65.40;;;;;;4431480;32;20109;-73
2022/10/07 06:45:32;;;;;;;;;;;18.50;65.10;;;;;;4417340;32;20053;-72
2022/10/07 06:47:57;;;;;;;;;;;18.50;65.10;;;;;;4431487;32;19983;-73
2022/10/07 06:50:23;;;;;;;;;;;18.50;65.00;;;;;;4431804;32;19981;-72
2022/10/07 06:52:49;;;;;;;;;;;18.50;65.50;;;;;;4417812;32;19977;-72
2022/10/07 06:55:15;;;;;;;;;;;18.50;65.50;;;;;;4431216;32;20038;-72
2022/10/07 06:57:41;;;;;;;;;;;18.50;65.40;;;;;;4405112;32;20035;-72
2022/10/07 07:00:07;;;;;;;;;;;18.40;65.50;;;;;;4431211;32;20397;-73
2022/10/07 07:02:33;;;;;;;;;;;18.40;65.60;;;;;;4431242;32;20007;-73
2022/10/07 07:04:59;;;;;;;;;;;18.40;65.70;;;;;;4431237;32;19982;-72
2022/10/07 07:07:25;;;;;;;;;;;18.50;65.80;;;;;;4431160;32;20521;-72
2022/10/07 07:09:51;;;;;;;;;;;18.50;65.80;;;;;;4430999;32;19966;-72
2022/10/07 07:12:17;;;;;;;;;;;18.50;65.90;;;;;;4430804;32;19991;-73
2022/10/07 07:14:44;;;;;;;;;;;18.50;66.00;;;;;;4417442;32;20376;-72
2022/10/07 07:17:10;;;;;;;;;;;18.50;66.00;;;;;;4430972;32;19979;-73
2022/10/07 07:19:36;;;;;;;;;;;18.50;66.00;;;;;;4430868;32;19990;-74
2022/10/07 07:22:02;;;;;;;;;;;18.50;66.10;;;;;;4430393;32;20392;-74
2022/10/07 07:24:28;;;;;;;;;;;18.50;66.10;;;;;;4430758;32;20038;-73
2022/10/07 07:26:53;;;;;;;;;;;18.50;66.10;;;;;;4430901;32;19975;-72
2022/10/07 07:29:19;;;;;;;;;;;18.50;66.20;;;;;;4430656;32;20057;-73
2022/10/07 07:31:45;;;;;;;;;;;18.50;66.20;;;;;;4430983;32;20014;-73
2022/10/07 07:34:11;;;;;;;;;;;18.50;66.20;;;;;;4404351;32;20105;-73
2022/10/07 07:36:40;;;;;;;;;;;18.60;66.30;;;;;;4431254;32;20409;-73
2022/10/07 07:39:08;;;;;;;;;;;18.50;66.20;;;;;;4430574;32;19986;-73
2022/10/07 07:41:34;;;;;;;;;;;18.60;66.30;;;;;;4430578;32;20057;-73
2022/10/07 07:44:02;;;;;;;;;;;18.60;66.30;;;;;;4422912;32;20470;-73
2022/10/07 07:46:31;;;;;;;;;;;18.60;66.30;;;;;;4430479;32;19986;-74
2022/10/07 07:48:57;;;;;;;;;;;18.60;66.40;;;;;;4430388;32;19988;-73
2022/10/07 07:51:23;;;;;;;;;;;18.60;66.40;;;;;;4430456;32;20431;-74
2022/10/07 07:53:49;;;;;;;;;;;18.60;66.50;;;;;;4416413;32;20054;-74
2022/10/07 07:56:15;;;;;;;;;;;18.60;66.40;;;;;;4430199;32;20018;-74
2022/10/07 07:58:41;;;;;;;;;;;18.60;66.50;;;;;;4416046;32;19968;-73
2022/10/07 08:01:08;;;;;;;;;;;18.60;66.40;;;;;;4430227;32;20073;-75
2022/10/07 08:03:37;;;;;;;;;;;18.70;66.50;;;;;;4430431;32;20129;-74
2022/10/07 08:06:04;;;;;;;;;;;18.70;66.80;;;;;;4430537;32;19967;-74
2022/10/07 08:08:30;;;;;;;;;;;18.70;66.90;;;;;;4430042;32;19991;-73
2022/10/07 08:10:56;;;;;;;;;;;18.70;66.90;;;;;;4429124;32;19963;-74
2022/10/07 08:13:23;;;;;;;;;;;18.70;67.00;;;;;;4429616;32;19995;-74
2022/10/07 08:15:54;;;;;;;;;;;18.70;67.00;;;;;;4429318;32;19998;-74
2022/10/07 08:18:20;;;;;;;;;;;18.70;66.90;;;;;;4433430;32;20048;-73
2022/10/07 08:20:59;;;;;;;;;;;18.80;66.90;;;;;;4434359;32;20096;-72
2022/10/07 08:23:31;;;;;;;;;;;18.80;67.00;;;;;;4405098;32;20376;-74
2022/10/07 08:25:57;;;;;;;;;;;18.80;67.00;;;;;;4416093;32;19990;-75
2022/10/07 08:28:23;;;;;;;;;;;18.80;67.00;;;;;;4429966;32;20345;-73
2022/10/07 08:30:53;;;;;;;;;;;18.80;67.10;;;;;;4429900;32;19989;-72
2022/10/07 08:33:19;;;;;;;;;;;18.80;67.10;;;;;;4429624;32;20077;-74
2022/10/07 08:35:56;;;;;;;;;;;18.80;66.80;;;;;;4429760;32;20015;-73
2022/10/07 08:38:22;;;;;;;;;;;18.90;66.60;;;;;;4429777;32;19990;-74
2022/10/07 08:40:49;;;;;;;;;;;18.90;66.60;;;;;;4430016;32;20001;-72
2022/10/07 08:43:15;;;;;;;;;;;18.90;66.60;;;;;;4430135;32;20031;-72
2022/10/07 08:45:41;;;;;;;;;;;18.90;66.60;;;;;;4430066;32;19986;-71
2022/10/07 08:48:11;;;;;;;;;;;18.90;66.40;;;;;;4430022;32;20165;-72
2022/10/07 08:50:42;;;;;;;;;;;18.90;66.40;;;;;;4429666;32;19989;-74
2022/10/07 08:53:14;;;;;;;;;;;19.00;66.50;;;;;;4428673;32;19993;-71
2022/10/07 08:55:42;;;;;;;;;;;19.00;66.50;;;;;;4428640;32;20042;-71
2022/10/07 08:58:21;;;;;;;;;;;19.00;66.50;;;;;;4429092;32;19990;-72
2022/10/07 09:01:06;;;;;;;;;;;19.00;66.40;;;;;;4427447;32;19994;-72
2022/10/07 09:03:58;;;;;;;;;;;19.00;66.40;;;;;;4428585;32;19975;-71
2022/10/07 09:06:33;;;;;;;;;;;19.00;66.20;;;;;;4411921;32;19998;-71
2022/10/07 09:09:10;;;;;;;;;;;19.00;66.30;;;;;;4425938;32;20026;-71
2022/10/07 09:11:39;;;;;;;;;;;19.00;66.10;;;;;;4426357;32;19990;-71
2022/10/07 09:14:08;;;;;;;;;;;19.00;65.90;;;;;;4427078;32;20058;-73
2022/10/07 09:16:37;;;;;;;;;;;19.00;65.90;;;;;;4431344;32;19985;-73
2022/10/07 09:19:03;;;;;;;;;;;19.00;65.70;;;;;;4431728;32;19987;-72
2022/10/07 09:21:35;;;;;;;;;;;19.10;65.60;;;;;;4432154;32;20055;-72
2022/10/07 09:24:16;;;;;;;;;;;19.10;65.70;;;;;;4415763;32;19987;-72
2022/10/07 09:26:42;;;;;;;;;;;19.10;65.70;;;;;;4424924;32;19993;-71
2022/10/07 09:29:09;;;;;;;;;;;19.20;65.70;;;;;;4428569;32;19975;-73
2022/10/07 09:31:35;;;;;;;;;;;19.20;65.60;;;;;;4416459;32;20034;-72
2022/10/07 09:34:01;;;;;;;;;;;19.20;65.60;;;;;;4431288;32;19975;-73
2022/10/07 09:36:27;;;;;;;;;;;19.20;65.50;;;;;;4432011;32;20413;-73
2022/10/07 09:38:52;;;;;;;;;;;19.20;65.70;;;;;;4432077;32;20017;-73
2022/10/07 09:41:21;;;;;;;;;;;19.30;65.70;;;;;;4431574;32;20000;-73
2022/10/07 09:44:04;;;;;;;;;;;19.30;65.80;;;;;;4432058;32;19982;-74
2022/10/07 09:46:34;;;;;;;;;;;19.30;65.70;;;;;;4431850;32;20479;-74
2022/10/07 09:49:04;;;;;;;;;;;19.30;65.60;;;;;;4431870;32;19979;-77
2022/10/07 09:51:31;;;;;;;;;;;19.30;65.60;;;;;;4431603;32;20019;-78
2022/10/07 09:53:57;;;;;;;;;;;19.30;65.60;;;;;;4431433;32;20042;-75
2022/10/07 09:56:34;;;;;;;;;;;19.30;65.60;;;;;;4421558;32;19977;-75
2022/10/07 09:59:17;;;;;;;;;;;19.30;65.60;;;;;;4431365;32;19994;-75
2022/10/07 10:01:49;;;;;;;;;;;19.40;65.60;;;;;;4431431;32;19994;-76
2022/10/07 10:04:16;;;;;;;;;;;19.40;65.50;;;;;;4431825;32;20514;-75
2022/10/07 10:06:46;;;;;;;;;;;19.40;65.50;;;;;;4431806;32;19971;-75
2022/10/07 10:09:13;;;;;;;;;;;19.40;65.50;;;;;;4432041;32;19995;-76
2022/10/07 10:11:39;;;;;;;;;;;19.40;65.40;;;;;;4431327;32;19979;-74
2022/10/07 10:14:26;;;;;;;;;;;19.40;65.30;;;;;;4431725;32;20054;-75
2022/10/07 10:16:51;;;;;;;;;;;19.40;65.40;;;;;;4430723;32;20421;-75
2022/10/07 10:19:21;;;;;;;;;;;19.40;65.20;;;;;;4431473;32;20077;-75
2022/10/07 10:21:55;;;;;;;;;;;19.40;65.30;;;;;;4431005;32;20010;-79
2022/10/07 10:26:24;;;;;;;;;;;19.40;65.40;;;;;;4431524;32;20062;-78
2022/10/07 10:27:21;;;;;;;;;;;19.50;65.40;;;;;;4431940;32;20103;-78
2022/10/07 10:29:56;;;;;;;;;;;19.50;65.30;;;;;;4431767;32;20108;-77
2022/10/07 10:32:37;;;;;;;;;;;19.50;65.40;;;;;;4431684;32;19971;-77
2022/10/07 10:35:12;;;;;;;;;;;19.50;65.40;;;;;;4429733;32;19975;-78
2022/10/07 10:37:41;;;;;;;;;;;19.50;65.40;;;;;;4431761;32;20006;-77
2022/10/07 10:40:24;;;;;;;;;;;19.50;65.40;;;;;;4417199;32;19990;-77
2022/10/07 10:42:50;;;;;;;;;;;19.50;65.40;;;;;;4431269;32;20321;-77
2022/10/07 10:45:34;;;;;;;;;;;19.50;65.40;;;;;;4431979;32;20411;-76
2022/10/07 10:48:12;;;;;;;;;;;19.50;65.40;;;;;;4431593;32;19992;-77
2022/10/07 10:51:12;;;;;;;;;;;19.50;65.40;;;;;;4432024;32;20026;-78
2022/10/07 10:54:03;;;;;;;;;;;19.50;65.40;;;;;;4401139;32;20144;-77
2022/10/07 10:56:33;;;;;;;;;;;19.50;65.50;;;;;;4431324;32;20069;-76
2022/10/07 10:59:02;;;;;;;;;;;19.50;65.60;;;;;;4431773;32;19975;-77
2022/10/07 11:01:27;;;;;;;;;;;19.50;65.40;;;;;;4431676;32;19994;-77
2022/10/07 11:04:05;;;;;;;;;;;19.50;65.50;;;;;;4431653;32;19971;-77
2022/10/07 11:06:33;;;;;;;;;;;19.50;65.50;;;;;;4431403;32;19993;-77
2022/10/07 11:09:00;;;;;;;;;;;19.50;65.60;;;;;;4431179;32;19982;-76
2022/10/07 11:11:26;;;;;;;;;;;19.40;65.70;;;;;;4431252;32;20031;-75
2022/10/07 11:13:55;;;;;;;;;;;19.40;65.70;;;;;;4431571;32;19983;-75
2022/10/07 11:16:23;;;;;;;;;;;19.40;65.70;;;;;;4431501;32;20031;-74
2022/10/07 11:19:00;;;;;;;;;;;19.40;65.80;;;;;;4431362;32;19994;-74
2022/10/07 11:21:36;;;;;;;;;;;19.40;66.00;;;;;;4431103;32;20074;-75
2022/10/07 11:24:04;;;;;;;;;;;19.40;65.90;;;;;;4432480;32;20037;-75
2022/10/07 11:26:33;;;;;;;;;;;19.40;65.90;;;;;;4430985;32;19983;-75
2022/10/07 11:29:02;;;;;;;;;;;19.40;65.90;;;;;;4431234;32;20021;-75
2022/10/07 11:31:31;;;;;;;;;;;19.40;65.90;;;;;;4430792;32;19979;-75
2022/10/07 11:34:05;;;;;;;;;;;19.40;66.00;;;;;;4430779;32;19974;-74
2022/10/07 11:36:38;;;;;;;;;;;19.40;66.00;;;;;;4430697;32;20535;-74
2022/10/07 11:39:04;;;;;;;;;;;19.40;66.00;;;;;;4430914;32;20309;-74
2022/10/07 11:41:46;;;;;;;;;;;19.40;66.00;;;;;;4416621;32;20416;-74
2022/10/07 11:44:20;;;;;;;;;;;19.40;66.10;;;;;;4430860;32;19993;-74
2022/10/07 11:46:47;;;;;;;;;;;19.40;66.20;;;;;;4430629;32;20022;-75
2022/10/07 11:49:17;;;;;;;;;;;19.40;66.10;;;;;;4416987;32;20085;-74
2022/10/07 11:51:50;;;;;;;;;;;19.40;66.10;;;;;;4430365;32;19993;-74
2022/10/07 11:54:19;;;;;;;;;;;19.40;66.00;;;;;;4429769;32;20472;-74
2022/10/07 11:56:49;;;;;;;;;;;19.40;66.90;;;;;;4429525;32;19983;-73
2022/10/07 11:59:34;;;;;;;;;;;19.40;66.10;;;;;;4430951;32;19993;-74
2022/10/07 12:02:00;;;;;;;;;;;19.40;66.00;;;;;;4427617;32;19971;-74
2022/10/07 12:04:29;;;;;;;;;;;19.40;66.10;;;;;;4428067;32;20105;-74
2022/10/07 12:07:14;;;;;;;;;;;19.40;66.10;;;;;;4414865;32;20323;-75
2022/10/07 12:09:58;;;;;;;;;;;19.40;66.20;;;;;;4429395;32;20494;-74
2022/10/07 12:12:23;;;;;;;;;;;19.40;66.10;;;;;;4429720;32;20435;-74
2022/10/07 12:15:00;;;;;;;;;;;19.40;66.10;;;;;;4416374;32;19970;-74
2022/10/07 12:17:28;;;;;;;;;;;19.30;66.10;;;;;;4430033;32;20025;-74
2022/10/07 12:20:14;;;;;;;;;;;19.40;66.20;;;;;;4428146;32;19987;-74
2022/10/07 12:22:40;;;;;;;;;;;19.30;66.20;;;;;;4430021;32;20005;-74
2022/10/07 12:25:28;;;;;;;;;;;19.40;66.20;;;;;;4429271;32;20136;-73
2022/10/07 12:27:54;;;;;;;;;;;19.40;66.30;;;;;;4429501;32;19991;-74
2022/10/07 12:30:41;;;;;;;;;;;19.40;66.30;;;;;;4429173;32;19979;-72
2022/10/07 12:33:14;;;;;;;;;;;19.40;66.30;;;;;;4429199;32;19990;-73
2022/10/07 12:35:40;;;;;;;;;;;19.40;66.40;;;;;;4429042;32;19983;-73
2022/10/07 12:38:09;;;;;;;;;;;19.40;66.40;;;;;;4415209;32;20030;-73
2022/10/07 12:40:36;;;;;;;;;;;19.40;67.30;;;;;;4429191;32;19971;-74
2022/10/07 12:43:20;;;;;;;;;;;19.40;66.30;;;;;;4414951;32;20431;-74
2022/10/07 12:45:47;;;;;;;;;;;19.40;66.40;;;;;;4429243;32;20053;-73
2022/10/07 12:48:17;;;;;;;;;;;19.40;66.30;;;;;;4429749;32;19979;-73
2022/10/07 12:50:44;;;;;;;;;;;19.40;66.40;;;;;;4429856;32;20051;-73
2022/10/07 12:53:10;;;;;;;;;;;19.40;66.30;;;;;;4429446;32;19985;-75
2022/10/07 12:55:39;;;;;;;;;;;19.40;66.40;;;;;;4429645;32;20347;-72
2022/10/07 13:01:13;;;;;;;;;;;19.50;66.40;;;;;;4429021;32;19987;-76
2022/10/07 13:04:09;;;;;;;;;;;19.40;66.40;;;;;;4429873;32;19983;-76
2022/10/07 13:06:45;;;;;;;;;;;19.50;66.50;;;;;;4419923;32;19983;-75
2022/10/07 13:09:24;;;;;;;;;;;19.50;66.60;;;;;;4409077;32;19979;-74
2022/10/07 13:11:53;;;;;;;;;;;19.50;66.70;;;;;;4414871;32;20534;-74
2022/10/07 13:14:34;;;;;;;;;;;19.50;66.70;;;;;;4417425;32;19971;-75
2022/10/07 13:17:11;;;;;;;;;;;19.50;66.70;;;;;;4421892;32;19979;-75
2022/10/07 13:19:41;;;;;;;;;;;19.50;66.70;;;;;;4414670;32;19983;-76
2022/10/07 13:22:17;;;;;;;;;;;19.50;66.80;;;;;;4414603;32;19983;-74
2022/10/07 13:24:47;;;;;;;;;;;19.50;67.10;;;;;;4418276;32;19986;-75
2022/10/07 13:27:15;;;;;;;;;;;19.40;66.90;;;;;;4421440;32;19983;-76
2022/10/07 13:29:41;;;;;;;;;;;19.40;66.90;;;;;;4414733;32;19991;-76
2022/10/07 13:32:14;;;;;;;;;;;19.40;67.00;;;;;;4415090;32;19982;-76
2022/10/07 13:34:40;;;;;;;;;;;19.40;67.00;;;;;;4414550;32;20109;-75
2022/10/07 13:37:25;;;;;;;;;;;19.40;67.00;;;;;;4421350;32;20015;-76
2022/10/07 13:39:50;;;;;;;;;;;19.40;67.10;;;;;;4416668;32;19971;-75
2022/10/07 13:42:18;;;;;;;;;;;19.40;67.00;;;;;;4414134;32;19998;-73
2022/10/07 13:44:43;;;;;;;;;;;19.40;67.10;;;;;;4414266;32;20406;-74
2022/10/07 13:47:17;;;;;;;;;;;19.40;67.30;;;;;;4414258;32;20374;-74
2022/10/07 13:49:44;;;;;;;;;;;19.40;67.50;;;;;;4414230;32;19967;-78
2022/10/07 13:52:22;;;;;;;;;;;19.40;67.50;;;;;;4414303;32;19990;-76
2022/10/07 13:54:51;;;;;;;;;;;19.40;67.50;;;;;;4400848;32;20022;-77
2022/10/07 13:57:17;;;;;;;;;;;19.40;67.50;;;;;;4417129;32;19971;-75
2022/10/07 13:59:44;;;;;;;;;;;19.40;67.60;;;;;;4416380;32;20516;-73
2022/10/07 14:02:11;;;;;;;;;;;19.40;67.70;;;;;;4415829;32;19983;-75
2022/10/07 14:04:48;;;;;;;;;;;19.40;67.70;;;;;;4412199;32;20049;-73
2022/10/07 14:07:13;;;;;;;;;;;19.40;67.60;;;;;;4418872;32;19975;-74
2022/10/07 14:09:46;;;;;;;;;;;19.40;67.60;;;;;;4431466;32;20046;-73
2022/10/07 14:12:15;;;;;;;;;;;19.40;67.60;;;;;;4431051;32;20003;-74
2022/10/07 14:14:54;;;;;;;;;;;19.40;67.70;;;;;;4430938;32;20429;-73
2022/10/07 14:17:39;;;;;;;;;;;19.40;67.70;;;;;;4431122;32;20028;-78
2022/10/07 14:20:25;;;;;;;;;;;19.40;67.60;;;;;;4431210;32;20144;-78
2022/10/07 14:22:53;;;;;;;;;;;19.40;67.60;;;;;;4431633;32;20034;-76
2022/10/07 14:25:19;;;;;;;;;;;19.40;67.60;;;;;;4431643;32;19991;-76
2022/10/07 14:27:44;;;;;;;;;;;19.40;67.60;;;;;;4431694;32;19963;-76
2022/10/07 14:36:30;;;;;;;;;;;19.40;67.60;;;;;;4431094;32;20026;-76
2022/10/07 14:38:58;;;;;;;;;;;19.40;67.60;;;;;;4430952;32;20542;-74
2022/10/07 14:41:27;;;;;;;;;;;19.40;67.60;;;;;;4430791;32;20298;-74
2022/10/07 14:43:54;;;;;;;;;;;19.40;67.60;;;;;;4430640;32;19981;-75
2022/10/07 14:46:21;;;;;;;;;;;19.40;67.70;;;;;;4430910;32;20104;-74
2022/10/07 14:48:51;;;;;;;;;;;19.40;67.70;;;;;;4431602;32;20046;-75